Time;durP1;ratioP1;P1;durP2;ratioP2;P2;SDS_P1;SDS_P2;PMS_P1;PMS_P2;Temp;Humidity;BMP_temperature;BMP_pressure;BME280_temperature;BME280_humidity;BME280_pressure;Samples;Min_cycle;Max_cycle;Signal;HPM_P1;HPM_P2
2023/03/13 00:00:01;;;;;;;9.43;2.33;;;;;;;9.71;68.66;99001.03;346476;28;1035;-70
2023/03/13 00:00:14;;;;;;;9.55;2.30;;;;;;;9.69;68.99;99005.44;346226;28;1550;-70
2023/03/13 00:00:26;;;;;;;7.50;2.05;;;;;;;9.66;68.79;99002.13;347102;28;1527;-70
2023/03/13 00:00:38;;;;;;;7.15;1.92;;;;;;;9.71;68.67;98997.59;346443;28;1739;-71
2023/03/13 00:00:52;;;;;;;9.75;2.08;;;;;;;9.69;68.92;99004.59;345264;28;1838;-71
2023/03/13 00:01:14;;;;;;;13.43;2.10;;;;;;;9.67;68.81;99004.66;344882;28;1422;-73
2023/03/13 00:01:39;;;;;;;10.50;2.08;;;;;;;9.69;69.11;99004.59;346600;28;1235;-70
2023/03/13 00:01:51;;;;;;;8.98;2.08;;;;;;;9.72;69.34;99000.16;346724;28;1175;-70
2023/03/13 00:02:06;;;;;;;8.20;2.13;;;;;;;9.72;68.99;99000.16;346229;28;1588;-70
2023/03/13 00:02:18;;;;;;;6.68;2.10;;;;;;;9.73;69.36;99003.56;346551;28;1872;-70
2023/03/13 00:02:31;;;;;;;5.82;1.95;;;;;;;9.75;68.96;98996.56;347793;28;1039;-70
2023/03/13 00:02:46;;;;;;;7.13;1.98;;;;;;;9.82;69.03;99004.94;348820;28;1206;-70
2023/03/13 00:02:58;;;;;;;8.63;2.10;;;;;;;9.78;69.11;99009.44;347875;28;1207;-70
2023/03/13 00:03:10;;;;;;;7.25;1.77;;;;;;;9.79;69.09;99003.34;347762;28;1268;-70
2023/03/13 00:03:22;;;;;;;6.25;1.75;;;;;;;9.78;69.12;98993.88;347045;28;2015;-70
2023/03/13 00:03:35;;;;;;;6.57;1.90;;;;;;;9.77;69.20;98997.34;347678;28;1781;-70
2023/03/13 00:03:47;;;;;;;7.25;2.20;;;;;;;9.77;69.36;99005.16;346437;28;1432;-70
2023/03/13 00:04:02;;;;;;;9.07;2.40;;;;;;;9.78;69.30;99005.09;346425;28;999;-70
2023/03/13 00:04:14;;;;;;;11.48;2.40;;;;;;;9.82;68.77;99000.63;346228;28;1059;-70
2023/03/13 00:04:26;;;;;;;11.02;2.17;;;;;;;9.80;69.34;99002.44;345849;28;1549;-70
2023/03/13 00:04:38;;;;;;;9.45;1.95;;;;;;;9.77;69.06;99002.56;346315;28;1270;-70
2023/03/13 00:04:50;;;;;;;10.48;1.90;;;;;;;9.79;69.22;98996.38;346668;28;1312;-70
2023/03/13 00:05:03;;;;;;;9.05;1.90;;;;;;;9.83;69.21;98997.13;345737;28;1066;-70
2023/03/13 00:05:15;;;;;;;7.13;1.95;;;;;;;9.86;69.31;98994.41;345149;28;1096;-70
2023/03/13 00:05:27;;;;;;;7.28;2.03;;;;;;;9.90;69.61;98997.69;346098;28;1078;-71
2023/03/13 00:05:39;;;;;;;7.30;1.95;;;;;;;9.92;69.00;98996.75;347436;28;1662;-71
2023/03/13 00:05:57;;;;;;;6.90;1.98;;;;;;;9.94;68.91;98994.94;348153;28;1237;-71
2023/03/13 00:06:09;;;;;;;10.50;2.15;;;;;;;9.97;68.92;98993.97;348917;28;1061;-71
2023/03/13 00:06:24;;;;;;;11.15;2.10;;;;;;;9.98;69.09;98996.50;348974;28;1715;-71
2023/03/13 00:06:38;;;;;;;11.15;2.10;;;;;;;9.96;68.73;98995.72;349335;28;1215;-71
2023/03/13 00:06:50;;;;;;;12.48;2.10;;;;;;;9.95;68.87;98995.78;348334;28;1115;-71
2023/03/13 00:07:04;;;;;;;10.93;2.00;;;;;;;9.89;68.84;98996.88;349109;28;1182;-71
2023/03/13 00:07:16;;;;;;;10.15;1.90;;;;;;;9.88;68.92;98996.91;348664;28;1397;-71
2023/03/13 00:07:28;;;;;;;10.57;1.95;;;;;;;9.86;68.90;98990.94;349546;28;949;-71
2023/03/13 00:07:40;;;;;;;11.35;2.08;;;;;;;9.82;69.20;98998.03;349090;28;1044;-71
2023/03/13 00:07:52;;;;;;;9.80;2.28;;;;;;;9.83;69.11;98986.72;348847;28;1854;-71
2023/03/13 00:08:04;;;;;;;8.48;2.50;;;;;;;9.86;69.04;98991.81;348141;28;1046;-71
2023/03/13 00:08:16;;;;;;;8.63;2.58;;;;;;;9.88;69.13;98992.59;347772;28;1172;-71
2023/03/13 00:08:29;;;;;;;7.18;2.10;;;;;;;9.91;69.20;98989.03;348029;28;1137;-71
2023/03/13 00:08:41;;;;;;;6.25;1.83;;;;;;;9.93;69.42;98993.22;348383;28;707;-71
2023/03/13 00:08:54;;;;;;;7.22;1.98;;;;;;;9.95;69.20;98988.81;346545;28;1613;-71
2023/03/13 00:09:09;;;;;;;8.88;2.15;;;;;;;9.98;69.43;98985.28;346440;28;1326;-70
2023/03/13 00:09:22;;;;;;;7.97;2.33;;;;;;;10.02;69.39;98991.16;346259;28;1318;-70
2023/03/13 00:09:34;;;;;;;6.85;2.00;;;;;;;10.04;69.24;98989.34;346699;28;1035;-70
2023/03/13 00:09:48;;;;;;;7.25;1.80;;;;;;;10.00;68.86;98991.25;347738;28;1056;-70
2023/03/13 00:10:00;;;;;;;7.68;2.03;;;;;;;9.99;68.84;98998.19;346891;28;1006;-70
2023/03/13 00:10:12;;;;;;;6.85;2.20;;;;;;;9.97;68.97;98992.19;346608;28;1102;-70
2023/03/13 00:10:26;;;;;;;8.05;2.50;;;;;;;9.92;69.06;98991.56;347418;28;1193;-70
2023/03/13 00:10:39;;;;;;;8.27;2.60;;;;;;;9.91;69.09;98989.84;347150;28;1643;-70
2023/03/13 00:10:51;;;;;;;9.43;2.50;;;;;;;9.88;69.07;98984.81;345881;28;1203;-70
2023/03/13 00:11:05;;;;;;;10.90;2.45;;;;;;;9.86;69.37;98991.81;346743;28;1140;-70
2023/03/13 00:11:17;;;;;;;11.48;2.17;;;;;;;9.87;69.26;98992.66;348017;28;1237;-70
2023/03/13 00:11:30;;;;;;;10.65;2.20;;;;;;;9.89;69.53;98991.66;347390;28;1114;-70
2023/03/13 00:11:43;;;;;;;9.25;2.10;;;;;;;9.85;69.11;98995.31;347811;28;1763;-70
2023/03/13 00:11:55;;;;;;;9.23;2.00;;;;;;;9.85;69.16;98989.28;346699;28;1042;-71
2023/03/13 00:12:07;;;;;;;7.93;2.10;;;;;;;9.79;69.53;98985.16;346680;28;1583;-70
2023/03/13 00:12:19;;;;;;;8.90;2.22;;;;;;;9.78;69.29;98993.88;346957;28;991;-70
2023/03/13 00:12:31;;;;;;;9.80;2.40;;;;;;;9.69;69.54;98983.84;347326;28;712;-70
2023/03/13 00:12:43;;;;;;;11.02;2.50;;;;;;;9.65;69.58;98987.47;345491;28;1297;-70
2023/03/13 00:12:55;;;;;;;11.43;2.60;;;;;;;9.57;69.94;98987.75;346168;28;1613;-70
2023/03/13 00:13:08;;;;;;;7.78;2.30;;;;;;;9.48;70.08;98990.72;346886;28;1050;-70
2023/03/13 00:13:20;;;;;;;8.57;2.50;;;;;;;9.47;70.58;98989.03;346144;28;1521;-71
2023/03/13 00:13:32;;;;;;;9.45;2.30;;;;;;;9.45;70.55;98990.84;347352;28;1126;-71
2023/03/13 00:13:46;;;;;;;10.15;2.33;;;;;;;9.47;70.62;98995.06;345351;28;1232;-71
2023/03/13 00:14:01;;;;;;;10.70;2.70;;;;;;;9.51;70.61;98986.25;346811;28;998;-70
2023/03/13 00:14:13;;;;;;;9.63;2.72;;;;;;;9.56;70.74;98991.28;346764;28;1004;-70
2023/03/13 00:14:25;;;;;;;9.45;2.38;;;;;;;9.57;70.49;98986.00;346418;28;1707;-70
2023/03/13 00:14:37;;;;;;;8.82;2.08;;;;;;;9.62;71.19;98988.44;345830;28;1842;-70
2023/03/13 00:14:49;;;;;;;10.02;2.22;;;;;;;9.67;70.61;98986.50;347232;28;1543;-70
2023/03/13 00:15:01;;;;;;;11.23;2.30;;;;;;;9.67;70.49;98985.66;348021;28;1204;-70
2023/03/13 00:15:13;;;;;;;10.23;2.25;;;;;;;9.65;70.54;98993.50;346861;28;1981;-70
2023/03/13 00:15:25;;;;;;;7.70;2.22;;;;;;;9.69;70.41;98986.44;347551;28;1797;-70
2023/03/13 00:15:37;;;;;;;6.82;1.95;;;;;;;9.65;70.29;98984.88;347848;28;1694;-70
2023/03/13 00:15:49;;;;;;;8.60;2.00;;;;;;;9.65;70.26;98984.88;348676;28;1317;-70
2023/03/13 00:16:03;;;;;;;10.25;2.10;;;;;;;9.68;70.63;98982.13;349351;28;1107;-70
2023/03/13 00:16:15;;;;;;;9.10;2.15;;;;;;;9.72;70.44;98983.75;348698;28;1712;-70
2023/03/13 00:16:29;;;;;;;7.28;2.05;;;;;;;9.76;70.42;98985.31;349151;28;1804;-70
2023/03/13 00:16:44;;;;;;;8.75;2.10;;;;;;;9.66;69.96;98978.75;348321;28;1053;-70
2023/03/13 00:16:56;;;;;;;9.10;2.22;;;;;;;9.72;69.92;98988.94;348898;28;1204;-70
2023/03/13 00:17:08;;;;;;;8.15;2.30;;;;;;;9.72;70.20;98983.75;349219;28;1272;-70
2023/03/13 00:17:20;;;;;;;9.30;2.58;;;;;;;9.69;69.92;98982.09;349241;28;1024;-70
2023/03/13 00:17:32;;;;;;;10.27;2.80;;;;;;;9.70;69.90;98985.53;348607;28;1627;-70
2023/03/13 00:17:44;;;;;;;9.85;2.72;;;;;;;9.71;69.87;98982.03;348989;28;1222;-70
2023/03/13 00:17:56;;;;;;;9.32;2.50;;;;;;;9.73;70.14;98975.03;346885;28;1042;-70
2023/03/13 00:18:08;;;;;;;9.30;2.20;;;;;;;9.74;69.80;98984.53;345672;28;759;-69
2023/03/13 00:18:22;;;;;;;8.48;2.05;;;;;;;9.77;70.13;98981.78;346114;28;1017;-69
2023/03/13 00:18:34;;;;;;;10.20;2.38;;;;;;;9.80;70.18;98979.09;346100;28;1504;-69
2023/03/13 00:18:48;;;;;;;11.70;2.50;;;;;;;9.85;70.11;98979.72;346103;28;1116;-69
2023/03/13 00:19:00;;;;;;;10.02;2.33;;;;;;;9.85;69.94;98979.72;345030;28;1105;-69
2023/03/13 00:19:14;;;;;;;8.75;2.30;;;;;;;9.83;69.76;98981.53;345915;28;1219;-69
2023/03/13 00:19:26;;;;;;;8.88;2.30;;;;;;;9.87;69.67;98980.50;346315;28;1231;-69
2023/03/13 00:19:38;;;;;;;8.35;2.25;;;;;;;9.88;69.61;98979.63;346795;28;743;-69
2023/03/13 00:19:54;;;;;;;9.25;2.30;;;;;;;9.92;69.72;98976.00;347805;28;1284;-69
2023/03/13 00:20:07;;;;;;;9.05;2.35;;;;;;;9.95;69.91;98975.84;349254;28;1033;-69
2023/03/13 00:20:20;;;;;;;8.95;2.50;;;;;;;9.99;70.02;98980.00;347304;28;1911;-69
2023/03/13 00:20:32;;;;;;;10.18;2.47;;;;;;;10.02;69.96;98973.88;347727;28;1274;-69
2023/03/13 00:20:46;;;;;;;9.52;2.42;;;;;;;10.02;69.49;98980.78;345812;28;1743;-69
2023/03/13 00:21:00;;;;;;;11.57;2.55;;;;;;;9.95;69.23;98973.25;346853;28;1082;-69
2023/03/13 00:21:13;;;;;;;11.65;2.63;;;;;;;9.95;69.31;98981.03;347428;28;1799;-69
2023/03/13 00:21:28;;;;;;;8.95;2.45;;;;;;;9.94;69.41;98975.91;347836;28;1743;-69
2023/03/13 00:21:40;;;;;;;7.10;2.35;;;;;;;9.97;69.09;98979.22;348227;28;839;-69
2023/03/13 00:21:52;;;;;;;8.45;2.40;;;;;;;9.97;68.92;98979.22;346704;28;1948;-69
2023/03/13 00:22:04;;;;;;;8.52;2.25;;;;;;;9.96;68.92;98972.34;347465;28;1525;-69
2023/03/13 00:22:16;;;;;;;7.53;2.10;;;;;;;9.98;69.17;98975.72;347715;28;1033;-69
2023/03/13 00:22:28;;;;;;;7.07;2.20;;;;;;;9.96;68.82;98972.34;347474;28;1026;-69
2023/03/13 00:22:40;;;;;;;7.57;2.30;;;;;;;9.95;68.97;98975.84;347743;28;1124;-70
2023/03/13 00:22:52;;;;;;;8.10;2.25;;;;;;;9.95;69.15;98970.66;347441;28;1458;-70
2023/03/13 00:23:04;;;;;;;8.93;2.20;;;;;;;9.98;69.11;98969.72;347565;28;1058;-69
2023/03/13 00:23:16;;;;;;;9.50;2.20;;;;;;;9.95;68.74;98970.66;347801;28;1247;-69
2023/03/13 00:23:28;;;;;;;9.38;2.40;;;;;;;9.95;68.92;98970.66;347926;28;1318;-70
2023/03/13 00:23:41;;;;;;;9.02;2.35;;;;;;;9.94;68.79;98981.97;347949;28;1070;-69
2023/03/13 00:23:53;;;;;;;8.80;2.20;;;;;;;9.92;69.18;98965.59;347577;28;1255;-69
2023/03/13 00:24:06;;;;;;;8.68;1.92;;;;;;;9.92;68.87;98970.78;347447;28;1050;-69
2023/03/13 00:24:18;;;;;;;10.30;2.20;;;;;;;9.94;69.29;98971.56;347992;28;1074;-69
2023/03/13 00:24:30;;;;;;;9.95;2.10;;;;;;;9.92;69.27;98975.13;348145;28;1434;-69
2023/03/13 00:24:44;;;;;;;8.40;2.00;;;;;;;9.91;69.07;98969.09;347467;28;1080;-69
2023/03/13 00:24:57;;;;;;;6.95;2.03;;;;;;;9.87;69.04;98975.31;347953;28;1130;-69
2023/03/13 00:25:09;;;;;;;8.35;2.20;;;;;;;9.81;69.51;98967.78;348009;28;1140;-69
2023/03/13 00:25:21;;;;;;;7.35;2.05;;;;;;;9.85;69.16;98966.75;348028;28;1026;-69
2023/03/13 00:25:33;;;;;;;8.50;2.15;;;;;;;9.84;69.17;98972.84;348301;28;1559;-69
2023/03/13 00:25:45;;;;;;;7.45;2.10;;;;;;;9.83;69.09;98970.31;348315;28;1295;-69
2023/03/13 00:26:08;;;;;;;8.23;2.22;;;;;;;9.81;69.41;98967.78;347925;28;1032;-69
2023/03/13 00:26:25;;;;;;;7.50;2.10;;;;;;;9.84;69.21;98967.66;347898;28;1211;-69
2023/03/13 00:26:37;;;;;;;8.38;2.03;;;;;;;9.84;69.43;98972.84;348105;28;1171;-69
2023/03/13 00:26:49;;;;;;;7.78;1.85;;;;;;;9.88;69.26;98968.38;348066;28;743;-69
2023/03/13 00:27:03;;;;;;;6.45;1.73;;;;;;;9.91;69.55;98965.66;347961;28;1174;-69
2023/03/13 00:27:15;;;;;;;5.13;1.87;;;;;;;9.96;69.36;98964.56;347829;28;981;-69
2023/03/13 00:27:31;;;;;;;5.90;1.85;;;;;;;10.03;69.49;98966.91;347651;28;1837;-69
2023/03/13 00:27:43;;;;;;;6.43;2.00;;;;;;;10.04;69.56;98969.44;347866;28;1526;-69
2023/03/13 00:27:55;;;;;;;6.65;2.10;;;;;;;10.08;69.13;98965.81;346742;28;1069;-69
2023/03/13 00:28:07;;;;;;;7.93;2.10;;;;;;;10.08;69.54;98964.94;347634;28;1659;-69
2023/03/13 00:28:19;;;;;;;9.13;2.25;;;;;;;10.02;69.04;98962.63;346606;28;1294;-69
2023/03/13 00:28:33;;;;;;;8.07;2.17;;;;;;;9.98;69.25;98965.34;347995;28;1197;-69
2023/03/13 00:28:46;;;;;;;7.15;2.13;;;;;;;9.84;69.42;98970.25;346455;28;2761;-69
2023/03/13 00:28:58;;;;;;;7.28;2.30;;;;;;;9.76;70.17;98964.53;347579;28;1327;-69
2023/03/13 00:29:10;;;;;;;9.38;2.45;;;;;;;9.80;69.85;98963.50;347963;28;1109;-69
2023/03/13 00:29:22;;;;;;;9.93;2.63;;;;;;;9.82;70.26;98963.41;347776;28;1355;-69
2023/03/13 00:29:34;;;;;;;8.77;2.40;;;;;;;9.79;69.77;98964.41;346624;28;1169;-69
2023/03/13 00:29:46;;;;;;;7.28;2.40;;;;;;;9.82;69.95;98964.28;345904;28;1732;-69
2023/03/13 00:29:58;;;;;;;7.07;2.30;;;;;;;9.74;69.96;98963.75;344532;28;1637;-69
2023/03/13 00:30:11;;;;;;;7.10;2.38;;;;;;;9.77;70.53;98961.03;345095;28;1015;-69
2023/03/13 00:30:23;;;;;;;7.50;2.38;;;;;;;9.82;70.49;98963.41;346112;28;972;-69
2023/03/13 00:30:35;;;;;;;7.78;2.25;;;;;;;9.85;70.24;98963.31;346550;28;1201;-69
2023/03/13 00:30:47;;;;;;;7.15;2.17;;;;;;;9.80;70.26;98961.75;346325;28;1763;-69
2023/03/13 00:31:07;;;;;;;9.43;2.33;;;;;;;9.70;70.37;98960.44;345936;28;1670;-70
2023/03/13 00:31:22;;;;;;;10.30;2.13;;;;;;;9.70;70.76;98963.03;345114;28;1155;-72
2023/03/13 00:31:34;;;;;;;9.25;2.28;;;;;;;9.70;70.79;98964.75;345498;28;888;-72
2023/03/13 00:31:46;;;;;;;9.15;2.28;;;;;;;9.74;70.75;98966.34;346886;28;1847;-70
2023/03/13 00:31:59;;;;;;;9.18;2.35;;;;;;;9.66;70.49;98953.69;348428;28;752;-70
2023/03/13 00:32:11;;;;;;;8.90;2.50;;;;;;;9.59;70.52;98968.63;347852;28;1348;-70
2023/03/13 00:32:23;;;;;;;7.53;2.30;;;;;;;9.57;70.70;98967.84;347395;28;1851;-70
2023/03/13 00:32:43;;;;;;;9.27;2.33;;;;;;;9.64;70.75;98965.00;348170;28;1226;-70
2023/03/13 00:32:55;;;;;;;9.13;2.33;;;;;;;9.66;70.98;98958.00;346838;28;1048;-70
2023/03/13 00:33:07;;;;;;;10.75;2.50;;;;;;;9.68;70.69;98961.38;346734;28;1084;-70
2023/03/13 00:33:19;;;;;;;10.30;2.60;;;;;;;9.71;71.10;98956.09;346699;28;1039;-70
2023/03/13 00:33:33;;;;;;;8.98;2.42;;;;;;;9.75;70.57;98962.84;347495;28;2010;-69
2023/03/13 00:33:47;;;;;;;9.18;2.75;;;;;;;9.80;70.74;98960.91;347065;28;1588;-69
2023/03/13 00:34:01;;;;;;;9.27;2.50;;;;;;;9.83;70.76;98960.78;346715;28;1915;-69
2023/03/13 00:34:13;;;;;;;7.57;2.00;;;;;;;9.87;70.52;98962.34;347872;28;1212;-69
2023/03/13 00:34:26;;;;;;;9.68;2.28;;;;;;;9.87;70.31;98967.53;347571;28;1756;-69
2023/03/13 00:34:38;;;;;;;10.93;2.53;;;;;;;9.83;70.73;98959.94;347667;28;1505;-70
2023/03/13 00:34:50;;;;;;;10.68;2.42;;;;;;;9.84;70.74;98961.59;347724;28;3591;-70
2023/03/13 00:35:02;;;;;;;9.88;2.28;;;;;;;9.79;70.48;98959.22;347734;28;1050;-70
2023/03/13 00:35:15;;;;;;;10.90;2.40;;;;;;;9.77;70.51;98955.84;348076;28;1101;-69
2023/03/13 00:35:26;;;;;;;10.27;2.42;;;;;;;9.65;70.75;98957.16;347647;28;1989;-69
2023/03/13 00:35:38;;;;;;;8.63;2.40;;;;;;;9.63;70.70;98952.94;348613;28;844;-69
2023/03/13 00:35:50;;;;;;;6.72;2.22;;;;;;;9.62;70.71;98956.44;348019;28;1334;-69
2023/03/13 00:36:06;;;;;;;6.85;2.20;;;;;;;9.65;70.88;98954.56;348499;28;719;-69
2023/03/13 00:36:20;;;;;;;8.75;2.35;;;;;;;9.66;70.94;98958.00;348192;28;1204;-70
2023/03/13 00:36:34;;;;;;;9.35;2.35;;;;;;;9.71;70.79;98948.28;347023;28;1740;-70
2023/03/13 00:36:46;;;;;;;8.05;2.42;;;;;;;9.69;70.80;98955.31;347944;28;1668;-70
2023/03/13 00:36:58;;;;;;;7.35;2.45;;;;;;;9.71;70.83;98958.69;347172;28;1906;-69
2023/03/13 00:37:10;;;;;;;9.00;2.63;;;;;;;9.72;70.56;98948.25;348480;28;1148;-69
2023/03/13 00:37:22;;;;;;;8.02;2.33;;;;;;;9.74;70.85;98951.63;348122;28;1078;-69
2023/03/13 00:37:34;;;;;;;5.82;2.25;;;;;;;9.72;70.52;98950.00;348544;28;735;-69
2023/03/13 00:37:46;;;;;;;8.63;2.60;;;;;;;9.67;70.49;98949.31;347345;28;2078;-69
2023/03/13 00:37:58;;;;;;;11.40;2.63;;;;;;;9.67;70.57;98946.72;348363;28;989;-69
2023/03/13 00:38:10;;;;;;;10.18;2.53;;;;;;;9.62;70.52;98952.13;348009;28;1074;-69
2023/03/13 00:38:22;;;;;;;7.07;2.10;;;;;;;9.63;70.55;98952.94;348560;28;1172;-69
2023/03/13 00:38:34;;;;;;;6.90;2.15;;;;;;;9.63;70.61;98952.94;349116;28;1070;-69
2023/03/13 00:38:46;;;;;;;9.05;2.25;;;;;;;9.60;70.35;98944.38;347990;28;1658;-69
2023/03/13 00:38:59;;;;;;;10.80;2.83;;;;;;;9.59;70.60;98957.41;348437;28;1081;-69
2023/03/13 00:39:11;;;;;;;10.55;2.95;;;;;;;9.60;70.75;98949.56;348161;28;947;-69
2023/03/13 00:39:23;;;;;;;11.82;3.05;;;;;;;9.58;70.69;98951.38;347926;28;1443;-69
2023/03/13 00:39:35;;;;;;;10.52;2.63;;;;;;;9.55;70.70;98961.88;347880;28;1985;-69
2023/03/13 00:39:47;;;;;;;9.50;2.60;;;;;;;9.56;70.73;98957.53;348445;28;1225;-69
2023/03/13 00:39:59;;;;;;;7.50;2.50;;;;;;;9.49;70.86;98949.16;346614;28;1886;-69
2023/03/13 00:40:11;;;;;;;7.15;2.33;;;;;;;9.53;71.06;98949.88;346488;28;1237;-69
2023/03/13 00:40:23;;;;;;;10.90;2.42;;;;;;;9.55;70.66;98951.50;346690;28;979;-69
2023/03/13 00:40:35;;;;;;;10.63;2.45;;;;;;;9.58;70.66;98951.38;346812;28;1174;-69
2023/03/13 00:40:47;;;;;;;8.00;2.17;;;;;;;9.58;70.57;98946.19;346657;28;1917;-69
2023/03/13 00:41:03;;;;;;;8.38;2.10;;;;;;;9.65;70.38;98951.13;346014;28;1890;-69
2023/03/13 00:41:19;;;;;;;11.10;2.22;;;;;;;9.70;70.71;98949.19;345288;28;1078;-69
2023/03/13 00:41:32;;;;;;;10.63;2.30;;;;;;;9.75;70.50;98947.25;345301;28;1610;-70
2023/03/13 00:41:44;;;;;;;12.38;2.70;;;;;;;9.75;70.39;98952.47;345583;28;1662;-69
2023/03/13 00:41:56;;;;;;;11.20;2.63;;;;;;;9.71;70.43;98946.53;345453;28;1674;-69
2023/03/13 00:42:08;;;;;;;11.55;2.60;;;;;;;9.71;70.07;98949.13;347409;28;1798;-69
2023/03/13 00:42:21;;;;;;;10.63;2.58;;;;;;;9.75;70.42;98947.25;347794;28;1034;-69
2023/03/13 00:42:35;;;;;;;7.70;2.35;;;;;;;9.77;70.04;98938.50;347847;28;1042;-69
2023/03/13 00:42:50;;;;;;;7.25;2.38;;;;;;;9.73;70.10;98943.88;347790;28;1183;-69
2023/03/13 00:43:02;;;;;;;9.23;2.58;;;;;;;9.73;70.07;98941.28;347741;28;1006;-69
2023/03/13 00:43:14;;;;;;;10.07;2.60;;;;;;;9.68;70.29;98946.69;347198;28;1770;-70
2023/03/13 00:43:26;;;;;;;10.13;2.70;;;;;;;9.71;70.16;98943.94;348011;28;1022;-69
2023/03/13 00:43:42;;;;;;;9.55;2.95;;;;;;;9.66;70.28;98940.69;346432;28;1013;-69
2023/03/13 00:43:54;;;;;;;9.88;3.25;;;;;;;9.67;70.33;98947.56;346930;28;1070;-69
2023/03/13 00:44:07;;;;;;;10.77;3.25;;;;;;;9.70;70.26;98944.00;346392;28;1106;-69
2023/03/13 00:44:19;;;;;;;10.32;2.80;;;;;;;9.74;70.41;98941.25;347372;28;1746;-70
2023/03/13 00:44:31;;;;;;;11.60;2.63;;;;;;;9.74;70.16;98945.59;347690;28;1098;-70
2023/03/13 00:44:43;;;;;;;9.73;2.70;;;;;;;9.72;70.30;98940.47;349343;28;1327;-69
2023/03/13 00:44:55;;;;;;;10.75;3.22;;;;;;;9.73;70.11;98939.53;348040;28;1312;-69
2023/03/13 00:45:07;;;;;;;10.50;3.42;;;;;;;9.81;70.44;98947.00;348126;28;1823;-69
2023/03/13 00:45:19;;;;;;;11.10;3.28;;;;;;;9.82;70.11;98938.34;347873;28;1664;-69
2023/03/13 00:45:31;;;;;;;11.07;3.33;;;;;;;9.86;70.26;98939.03;349030;28;1456;-69
2023/03/13 00:45:43;;;;;;;11.35;3.47;;;;;;;9.91;70.16;98943.13;348759;28;1928;-69
2023/03/13 00:45:55;;;;;;;11.55;3.70;;;;;;;9.95;69.76;98944.69;348515;28;1781;-69
2023/03/13 00:46:08;;;;;;;9.23;3.30;;;;;;;9.98;69.68;98943.75;347872;28;1186;-69
2023/03/13 00:46:23;;;;;;;11.35;3.25;;;;;;;9.98;69.98;98941.97;346543;28;1109;-69
2023/03/13 00:46:35;;;;;;;13.73;3.58;;;;;;;10.00;69.91;98937.56;345319;28;1589;-69
2023/03/13 00:46:47;;;;;;;12.95;3.47;;;;;;;10.03;69.66;98935.75;345265;28;1556;-69
2023/03/13 00:46:59;;;;;;;9.45;3.03;;;;;;;10.06;70.08;98940.81;345900;28;1248;-69
2023/03/13 00:47:11;;;;;;;9.77;2.85;;;;;;;10.06;69.78;98935.59;346492;28;1215;-69
2023/03/13 00:47:23;;;;;;;10.25;2.90;;;;;;;10.09;69.91;98935.50;346386;28;1134;-69
2023/03/13 00:47:35;;;;;;;11.27;3.22;;;;;;;10.11;69.98;98936.28;345846;28;1704;-69
2023/03/13 00:47:48;;;;;;;11.73;3.30;;;;;;;10.13;69.69;98931.84;346457;28;1690;-69
2023/03/13 00:48:00;;;;;;;9.77;2.90;;;;;;;10.17;69.62;98938.59;345705;28;1519;-69
2023/03/13 00:48:12;;;;;;;9.27;2.78;;;;;;;10.18;69.28;98942.88;346463;28;1766;-69
2023/03/13 00:48:25;;;;;;;10.48;2.83;;;;;;;10.16;69.34;98936.91;347926;28;1373;-69
2023/03/13 00:48:37;;;;;;;10.73;3.00;;;;;;;10.09;69.26;98938.09;347102;28;1660;-70
2023/03/13 00:48:49;;;;;;;12.18;3.20;;;;;;;10.12;69.38;98937.94;347326;28;1318;-71
2023/03/13 00:49:02;;;;;;;11.55;3.30;;;;;;;10.14;69.23;98934.41;347423;28;1504;-71
2023/03/13 00:49:14;;;;;;;10.20;3.13;;;;;;;10.16;69.27;98936.91;347537;28;1110;-71
2023/03/13 00:49:26;;;;;;;10.52;3.00;;;;;;;10.18;68.91;98935.09;348082;28;1070;-71
2023/03/13 00:49:38;;;;;;;10.48;2.92;;;;;;;10.20;69.56;98933.28;347917;28;1980;-71
2023/03/13 00:49:50;;;;;;;9.93;2.80;;;;;;;10.17;69.08;98936.00;347536;28;1119;-71
2023/03/13 00:50:02;;;;;;;9.73;2.78;;;;;;;10.14;69.27;98933.53;346811;28;1173;-71
2023/03/13 00:50:14;;;;;;;9.95;3.13;;;;;;;10.15;69.07;98927.44;346577;28;1059;-71
2023/03/13 00:50:26;;;;;;;9.95;3.20;;;;;;;10.16;69.38;98931.72;346651;28;1037;-71
2023/03/13 00:50:38;;;;;;;10.02;2.95;;;;;;;10.17;69.34;98933.41;346591;28;1050;-71
2023/03/13 00:50:50;;;;;;;9.50;2.58;;;;;;;10.14;69.56;98933.53;346948;28;1885;-71
2023/03/13 00:51:03;;;;;;;9.57;2.58;;;;;;;10.08;69.23;98933.78;346669;28;1641;-71
2023/03/13 00:51:17;;;;;;;9.70;2.92;;;;;;;10.11;69.30;98933.69;347823;28;1806;-71
2023/03/13 00:51:30;;;;;;;8.32;2.72;;;;;;;10.13;69.46;98931.84;347899;28;1039;-70
2023/03/13 00:51:42;;;;;;;7.43;2.30;;;;;;;10.15;69.54;98930.03;347841;28;1019;-70
2023/03/13 00:51:54;;;;;;;7.57;2.65;;;;;;;10.11;69.37;98924.13;347184;28;1617;-70
2023/03/13 00:52:06;;;;;;;7.97;2.70;;;;;;;10.05;69.28;98929.59;347834;28;1702;-69
2023/03/13 00:52:18;;;;;;;8.18;2.35;;;;;;;9.99;69.08;98929.84;348228;28;1031;-69
2023/03/13 00:52:30;;;;;;;8.35;2.30;;;;;;;9.97;69.26;98936.84;347994;28;1054;-71
2023/03/13 00:52:42;;;;;;;8.50;2.38;;;;;;;10.00;69.03;98937.56;348151;28;1070;-71
2023/03/13 00:52:54;;;;;;;8.63;2.60;;;;;;;9.95;69.63;98934.31;347463;28;1699;-71
2023/03/13 00:53:05;;;;;;;9.88;2.80;;;;;;;9.94;69.51;98936.97;346891;28;1744;-71
2023/03/13 00:53:18;;;;;;;9.52;2.53;;;;;;;9.93;69.49;98930.94;347546;28;1444;-71
2023/03/13 00:53:31;;;;;;;8.60;2.30;;;;;;;9.92;69.64;98933.59;348697;28;739;-71
2023/03/13 00:53:43;;;;;;;7.93;2.25;;;;;;;9.88;70.18;98935.50;347963;28;1035;-70
2023/03/13 00:53:59;;;;;;;8.38;2.40;;;;;;;9.87;70.00;98933.78;347470;28;1709;-70
2023/03/13 00:54:11;;;;;;;8.85;2.30;;;;;;;9.87;70.66;98932.94;348077;28;816;-70
2023/03/13 00:54:23;;;;;;;8.43;2.28;;;;;;;9.90;70.61;98930.22;347951;28;1183;-70
2023/03/13 00:54:35;;;;;;;9.00;2.38;;;;;;;9.91;70.41;98932.75;348496;28;1089;-69
2023/03/13 00:54:47;;;;;;;7.55;2.17;;;;;;;9.94;70.57;98930.03;347890;28;1431;-69
2023/03/13 00:54:58;;;;;;;6.18;1.92;;;;;;;9.92;70.40;98928.38;347802;28;1050;-69
2023/03/13 00:55:11;;;;;;;8.10;2.00;;;;;;;9.91;70.18;98927.56;347810;28;1776;-69
2023/03/13 00:55:23;;;;;;;10.90;2.45;;;;;;;9.86;70.25;98929.50;347082;28;1640;-69
2023/03/13 00:55:35;;;;;;;12.63;2.33;;;;;;;9.90;70.16;98930.22;347301;28;1746;-69
2023/03/13 00:56:14;;;;;;;10.75;2.33;;;;;;;9.94;70.18;98927.44;347666;28;1226;-70
2023/03/13 00:56:29;;;;;;;7.22;1.98;;;;;;;9.97;70.29;98916.91;343724;28;1664;-69
2023/03/13 00:56:41;;;;;;;6.60;1.98;;;;;;;9.93;69.99;98930.09;347692;28;1270;-69
2023/03/13 00:56:53;;;;;;;7.50;2.20;;;;;;;9.94;69.81;98927.44;348006;28;1710;-69
2023/03/13 00:57:05;;;;;;;7.28;2.30;;;;;;;9.95;70.20;98929.13;346216;28;1511;-69
2023/03/13 00:57:17;;;;;;;6.45;2.17;;;;;;;9.95;70.16;98918.72;344090;28;1573;-69
2023/03/13 00:57:29;;;;;;;7.22;2.20;;;;;;;9.97;70.32;98921.28;346652;28;1705;-69
2023/03/13 00:57:41;;;;;;;7.55;2.20;;;;;;;9.91;70.23;98922.38;347052;28;1042;-69
2023/03/13 00:57:53;;;;;;;8.75;2.10;;;;;;;9.87;70.39;98926.00;346621;28;1132;-71
2023/03/13 00:58:04;;;;;;;7.78;2.00;;;;;;;9.87;70.25;98919.97;346543;28;1125;-71
2023/03/13 00:58:16;;;;;;;8.57;2.00;;;;;;;9.86;70.84;98919.13;346647;28;1164;-70
2023/03/13 00:58:31;;;;;;;7.63;1.90;;;;;;;9.88;70.75;98924.22;346318;28;1728;-70
2023/03/13 00:58:45;;;;;;;8.00;2.00;;;;;;;9.91;70.76;98924.97;347735;28;1286;-70
2023/03/13 00:58:58;;;;;;;8.60;2.08;;;;;;;9.93;70.73;98920.53;346841;28;1964;-70
2023/03/13 00:59:10;;;;;;;7.37;1.93;;;;;;;9.94;70.91;98917.06;347567;28;1063;-70
2023/03/13 00:59:22;;;;;;;6.68;1.90;;;;;;;9.96;70.80;98923.03;347827;28;1279;-70
2023/03/13 00:59:34;;;;;;;7.50;2.10;;;;;;;9.93;70.95;98930.09;347305;28;1901;-70
2023/03/13 00:59:46;;;;;;;8.48;2.22;;;;;;;9.90;71.08;98923.28;348198;28;1676;-70
2023/03/13 00:59:58;;;;;;;8.60;2.50;;;;;;;9.83;71.28;98923.59;347302;28;1816;-70
2023/03/13 01:00:11;;;;;;;10.95;2.40;;;;;;;9.66;71.21;98916.47;347811;28;1773;-70
2023/03/13 01:00:23;;;;;;;11.55;2.40;;;;;;;9.53;71.36;98921.34;347531;28;1507;-69
2023/03/13 01:00:35;;;;;;;8.70;2.15;;;;;;;9.42;72.18;98919.19;346543;28;1767;-69
2023/03/13 01:00:47;;;;;;;7.15;2.00;;;;;;;9.39;72.26;98919.28;347680;28;1854;-69
2023/03/13 01:01:11;;;;;;;6.70;1.92;;;;;;;9.30;72.93;98914.47;348034;28;1885;-69
2023/03/13 01:01:31;;;;;;;6.20;2.25;;;;;;;9.24;73.61;98919.91;347673;28;1657;-69
2023/03/13 01:01:43;;;;;;;9.27;2.22;;;;;;;9.31;73.21;98921.34;348048;28;1662;-70
2023/03/13 01:01:55;;;;;;;10.15;2.20;;;;;;;9.35;73.13;98920.31;349315;28;1148;-70
2023/03/13 01:02:07;;;;;;;7.82;2.05;;;;;;;9.39;73.13;98919.28;349833;28;790;-70
2023/03/13 01:02:20;;;;;;;8.43;2.38;;;;;;;9.37;72.80;98915.91;349190;28;1710;-70
2023/03/13 01:02:32;;;;;;;7.72;2.35;;;;;;;9.34;72.94;98919.47;347335;28;1006;-70